Tuesday, February 20, 2018, 10:39 AM EST
Back to Local

KDXR, Danbury Municipal Airport

Location: Danbury, CT, United States Lat: 41.367
Local Time: 10:39 AM EST (15:39 GMT) Lon: -73.483
Time Zone: US/Eastern Elev: 459 ft

Show me the last for .
Show Coded

Time T Td Feel RH Dir Speed Gust Alt SLP Vis Weather Sky Remarks
2018-02-20 09:53 - - - 0 250° 12 - 30.32 - 9 OVC005 None
2018-02-20 08:53 - - - 0 240° 8 - 30.32 - 7 OVC005 None
2018-02-20 07:53 - - - 0 230° 10 - 30.32 - 4 HZ OVC004 None
2018-02-20 07:19 - - - 0 240° 9 - 30.30 - 3 BR OVC004 None
2018-02-20 06:53 - - - 0 260° 3 - 30.30 - 8 OVC008 24-hr Precip Total (7am): 0.08"
2018-02-20 06:39 - - - 0 240° 3 - 30.30 - 8 BKN008 None
2018-02-20 06:14 - - - 0 250° 5 - 30.29 - 9 FEW009 BKN090 None
2018-02-20 05:53 - - - 0 250° 5 - 30.29 - 9 BKN095 None
2018-02-20 05:25 - - - 0 250° 3 - 30.28 - 8 SCT008 OVC095 None
2018-02-20 04:53 - - - 0 250° 3 - 30.28 - 8 OVC006 None
2018-02-20 04:08 - - - 0 230° 6 - 30.28 - 8 OVC005 None
2018-02-20 03:53 - - - 0 220° 9 - 30.27 - 8 OVC004 None
2018-02-20 03:25 - - - 0 260° 5 - 30.27 - 7 OVC004 None
2018-02-20 03:03 - - - 0 240° 6 - 30.28 - 5 HZ OVC003 None
2018-02-20 02:53 - - - 0 250° 5 - 30.28 - 2 BR OVC003 None
2018-02-20 02:38 - - - 0 - Calm - 30.29 - 1 BR OVC004 None
2018-02-20 02:11 - - - 0 330° 5 - 30.29 - 0 FG VV004 None
2018-02-20 01:53 - - - 0 - Calm - 30.29 - 0 FG VV003 None
2018-02-20 00:53 - - - 0 160° 3 - 30.29 - 0 FG VV002 6-hr Precip Total (1am): 0.05"
2018-02-20 00:06 - - - 0 - Calm - 30.31 - 0 BR VV003 None
2018-02-19 23:53 - - - 0 Variable 3 - 30.31 - 1 BR VV003 None
2018-02-19 23:49 - - - 0 - Calm - 30.30 - 0 BR VV004 None
2018-02-19 23:00 - - - 0 - Calm - 30.33 - 0 FG VV003 None
2018-02-19 22:53 - - - 0 - Calm - 30.33 - 0 FG VV004 None
2018-02-19 22:32 - - - 0 150° 5 - 30.35 - 0 BR OVC004 None
2018-02-19 22:03 - - - 0 - Calm - 30.34 - 1 BR OVC006 None
2018-02-19 21:53 - - - 0 - Calm - 30.33 - 0 FG VV006 1-hr Precip Total: 0.02"
6-hr Precip Total (10pm): 0.05"
2018-02-19 21:39 - - - 0 - Calm - 30.33 - 0 -RA OVC006 1-hr Precip Total: 0.02"
2018-02-19 21:24 - - - 0 - Calm - 30.34 - 1 -RA OVC005 1-hr Precip Total: 0.02"
2018-02-19 21:02 - - - 0 - Calm - 30.34 - 1 -RA OVC005 1-hr Precip Total: 0.01"
2018-02-19 20:53 - - - 0 - Calm - 30.35 - 3 -RA OVC005 1-hr Precip Total: 0.02"
2018-02-19 19:53 - - - 0 230° 7 - 30.35 - 6 -RA OVC008 1-hr Precip Total: 0.01"
2018-02-19 18:53 - - - 0 Variable 7 - 30.33 - 8 -RA BKN009 BKN019 OVC026 1-hr Precip Total: Trace
6-hr Precip Total (7pm): 0.03"
2018-02-19 18:06 - - - 0 180° 5 - 30.34 - 5 HZ BKN009 BKN020 OVC026 None
2018-02-19 17:53 - - - 0 Variable 5 - 30.35 - 10 SCT010 OVC021 1-hr Precip Total: 0.01"
2018-02-19 17:50 - - - 0 - Calm - 30.35 - 10 SCT010 OVC021 1-hr Precip Total: 0.01"
2018-02-19 17:24 - - - 0 190° 3 - 30.35 - 9 -RA BKN011 OVC025 1-hr Precip Total: 0.01"
2018-02-19 17:12 - - - 0 - Calm - 30.35 - 7 -RA SCT011 BKN026 OVC032 1-hr Precip Total: 0.01"
2018-02-19 16:53 - - - 0 190° 6 - 30.35 - 5 -RA OVC032 1-hr Precip Total: 0.02"
2018-02-19 15:53 - - - 0 180° 7 - 30.37 - 10 OVC034 None
2018-02-19 14:53 - - - 0 Variable 7 - 30.39 - 10 OVC035 None
2018-02-19 13:53 - - - 0 Variable 5 - 30.39 - 10 FEW023 OVC041 None
2018-02-19 12:53 - - - 0 180° 10 17 30.42 - 10 OVC042 None
2018-02-19 11:53 - - - 0 190° 10 - 30.47 - 10 OVC048 None
2018-02-19 10:53 - - - 0 210° 12 23 30.48 - 10 FEW026 BKN120 None

Support USWX by starting your Amazon purchase here.